Fugaku Maru — JH3428 — position and weather

sailwx.info

Track history (hours):
 
Tides and Currents Weather Stations Pressure Air Temp Water Temp Dewpoint Dewpoint Depression Visibility Wind Speed Wind Dir Waves Ship Positions

Fugaku Maru

Last reported at 2017-Aug-13 10:58 UTC. Time now 2017-Aug-18 04:53 UTC.
Position N 34°47' E 139°54'.

Length 165 m; draft 7.2 m.

Type: Cargo ship. MMSI: 431200176.

Date/timePositionNaut miles runAvg speedWind from/ knotsBaromVisibWave heightAir tempDewpointWater temp
2017-Aug-13 10:58N 34°47' E 139°54'15 0.4
2017-Aug-11 20:08N 34°41' E 139°37'921.3
2017-Aug-11 19:44N 34°44' E 139°47'521.6
2017-Aug-11 19:31N 34°46' E 139°52'  
2017-Aug-09 11:39N 34°53' E 140°06'1119.8
2017-Aug-09 11:04N 34°47' E 139°54'119.8
2017-Aug-09 11:00N 34°47' E 139°52'1019.9
2017-Aug-09 10:30N 34°43' E 139°41'1120.0
2017-Aug-09 09:59N 34°38' E 139°29'13 0.5
2017-Aug-08 07:50N 34°43' E 139°44'715.7
2017-Aug-08 07:22N 34°46' E 139°53'715.6
2017-Aug-08 06:56N 34°49' E 140°00'  
2017-Aug-04 19:54N 34°47' E 139°52'1319.4
2017-Aug-04 19:14N 34°42' E 139°38'8 0.4
2017-Aug-03 20:46N 34°45' E 139°47'520.5
2017-Aug-03 20:30N 34°47' E 139°52'  
Track history (hours):
 
Tides and Currents Weather Stations Pressure Air Temp Water Temp Dewpoint Dewpoint Depression Visibility Wind Speed Wind Dir Waves Ship Positions

Fugaku Maru

Last reported at 2017-Aug-13 10:58 UTC. Time now 2017-Aug-18 04:53 UTC.
Position N 34°47' E 139°54'.

Length 165 m; draft 7.2 m.

Type: Cargo ship. MMSI: 431200176.

Date/timePositionNaut miles runAvg speedWind from/ knotsBaromVisibWave heightAir tempDewpointWater temp
2017-Aug-13 10:58N 34°47' E 139°54'15 0.4
2017-Aug-11 20:08N 34°41' E 139°37'921.3
2017-Aug-11 19:44N 34°44' E 139°47'521.6
2017-Aug-11 19:31N 34°46' E 139°52'  
2017-Aug-09 11:39N 34°53' E 140°06'1119.8
2017-Aug-09 11:04N 34°47' E 139°54'119.8
2017-Aug-09 11:00N 34°47' E 139°52'1019.9
2017-Aug-09 10:30N 34°43' E 139°41'1120.0
2017-Aug-09 09:59N 34°38' E 139°29'13 0.5
2017-Aug-08 07:50N 34°43' E 139°44'715.7
2017-Aug-08 07:22N 34°46' E 139°53'715.6
2017-Aug-08 06:56N 34°49' E 140°00'  
2017-Aug-04 19:54N 34°47' E 139°52'1319.4
2017-Aug-04 19:14N 34°42' E 139°38'8 0.4
2017-Aug-03 20:46N 34°45' E 139°47'520.5
2017-Aug-03 20:30N 34°47' E 139°52'  

Dump ship's entire track history